SLSJ weather

Salinas Airport
Ladislao Cabrera, Oruro Department, Bolivia

Public forecast

Using degrees Celsius for public forecast. Weather courtesy of forecast.io.

METAR (pilot weather report)

Report is more than 6 hours old.

Closest report is Uyuni Airport, 63.1 nm (116.8 km) SSE. Retrieved 2019/05/15 14:00 UTC (6 days ago):

SLUY 151400Z 19003KT 9999 NSC 05/M07 Q1038

TAF (pilot weather forecast)

Forecast is more than 12 hours old.

Closest forecast is Uyuni Airport, 63.1 nm (116.8 km) SSE. Retrieved 2019/05/06 00:19 UTC (15 days ago):

TAF SLUY 062200Z 0700/0724 03008KT 9999 FEW020 TX17/0720Z TNM06/0710Z BECMG 0715/0718 34012KT